sensor_id;sensor_type;location;lat;lon;timestamp;temperature;humidity
33831;DHT22;20137;48.834;8.732;2023-04-15T00:00:27;4.30;99.90
33831;DHT22;20137;48.834;8.732;2023-04-15T00:02:53;4.30;99.90
33831;DHT22;20137;48.834;8.732;2023-04-15T00:05:20;4.30;99.90
33831;DHT22;20137;48.834;8.732;2023-04-15T00:07:46;4.40;99.90
33831;DHT22;20137;48.834;8.732;2023-04-15T00:10:12;4.40;99.90
33831;DHT22;20137;48.834;8.732;2023-04-15T00:12:39;4.40;99.90
33831;DHT22;20137;48.834;8.732;2023-04-15T00:15:06;4.40;99.90
33831;DHT22;20137;48.834;8.732;2023-04-15T00:17:34;4.50;99.90
33831;DHT22;20137;48.834;8.732;2023-04-15T00:19:59;4.40;99.90
33831;DHT22;20137;48.834;8.732;2023-04-15T00:22:28;4.40;99.90
33831;DHT22;20137;48.834;8.732;2023-04-15T00:24:54;4.30;99.90
33831;DHT22;20137;48.834;8.732;2023-04-15T00:27:19;4.40;99.90
33831;DHT22;20137;48.834;8.732;2023-04-15T00:29:45;4.30;99.90
33831;DHT22;20137;48.834;8.732;2023-04-15T00:32:11;4.30;99.90
33831;DHT22;20137;48.834;8.732;2023-04-15T00:34:37;4.30;99.90
33831;DHT22;20137;48.834;8.732;2023-04-15T00:37:02;4.20;99.90
33831;DHT22;20137;48.834;8.732;2023-04-15T00:39:28;4.30;99.90
33831;DHT22;20137;48.834;8.732;2023-04-15T00:41:54;4.20;99.90
33831;DHT22;20137;48.834;8.732;2023-04-15T00:44:20;4.20;99.90
33831;DHT22;20137;48.834;8.732;2023-04-15T00:46:46;4.20;99.90
33831;DHT22;20137;48.834;8.732;2023-04-15T00:49:13;4.10;99.90
33831;DHT22;20137;48.834;8.732;2023-04-15T00:51:38;4.10;99.90
33831;DHT22;20137;48.834;8.732;2023-04-15T00:54:05;4.10;99.90
33831;DHT22;20137;48.834;8.732;2023-04-15T00:56:35;4.10;99.90
33831;DHT22;20137;48.834;8.732;2023-04-15T00:59:03;4.10;99.90
33831;DHT22;20137;48.834;8.732;2023-04-15T01:01:29;4.00;99.90
33831;DHT22;20137;48.834;8.732;2023-04-15T01:03:56;4.00;99.90
33831;DHT22;20137;48.834;8.732;2023-04-15T01:06:25;4.00;99.90
33831;DHT22;20137;48.834;8.732;2023-04-15T01:08:52;4.10;99.90
33831;DHT22;20137;48.834;8.732;2023-04-15T01:11:18;4.10;99.90
33831;DHT22;20137;48.834;8.732;2023-04-15T01:13:45;4.10;99.90
33831;DHT22;20137;48.834;8.732;2023-04-15T01:16:11;4.20;99.90
33831;DHT22;20137;48.834;8.732;2023-04-15T01:18:37;4.00;99.90
33831;DHT22;20137;48.834;8.732;2023-04-15T01:21:04;4.00;99.90
33831;DHT22;20137;48.834;8.732;2023-04-15T01:23:32;4.00;99.90
33831;DHT22;20137;48.834;8.732;2023-04-15T01:25:58;4.00;99.90
33831;DHT22;20137;48.834;8.732;2023-04-15T01:28:24;4.00;99.90
33831;DHT22;20137;48.834;8.732;2023-04-15T01:31:04;4.10;99.90
33831;DHT22;20137;48.834;8.732;2023-04-15T01:33:30;4.10;99.90
33831;DHT22;20137;48.834;8.732;2023-04-15T01:35:56;4.20;99.90
33831;DHT22;20137;48.834;8.732;2023-04-15T01:38:24;4.20;99.90
33831;DHT22;20137;48.834;8.732;2023-04-15T01:40:50;4.20;99.90
33831;DHT22;20137;48.834;8.732;2023-04-15T01:43:15;4.30;99.90
33831;DHT22;20137;48.834;8.732;2023-04-15T01:45:41;4.30;99.90
33831;DHT22;20137;48.834;8.732;2023-04-15T01:48:07;4.40;99.90
33831;DHT22;20137;48.834;8.732;2023-04-15T01:50:34;4.40;99.90
33831;DHT22;20137;48.834;8.732;2023-04-15T01:53:01;4.40;99.90
33831;DHT22;20137;48.834;8.732;2023-04-15T01:55:26;4.50;99.90
33831;DHT22;20137;48.834;8.732;2023-04-15T01:57:52;4.50;99.90
33831;DHT22;20137;48.834;8.732;2023-04-15T02:00:18;4.60;99.90
33831;DHT22;20137;48.834;8.732;2023-04-15T02:02:43;4.60;99.90
33831;DHT22;20137;48.834;8.732;2023-04-15T02:05:09;4.70;99.90
33831;DHT22;20137;48.834;8.732;2023-04-15T02:07:35;4.70;99.90
33831;DHT22;20137;48.834;8.732;2023-04-15T02:10:02;4.70;99.90
33831;DHT22;20137;48.834;8.732;2023-04-15T02:12:28;4.70;99.90
33831;DHT22;20137;48.834;8.732;2023-04-15T02:14:55;4.70;99.90
33831;DHT22;20137;48.834;8.732;2023-04-15T02:17:21;4.70;99.90
33831;DHT22;20137;48.834;8.732;2023-04-15T02:19:46;4.60;99.90
33831;DHT22;20137;48.834;8.732;2023-04-15T02:22:12;4.60;99.90
33831;DHT22;20137;48.834;8.732;2023-04-15T02:24:43;4.50;99.90
33831;DHT22;20137;48.834;8.732;2023-04-15T02:27:09;4.40;99.90
33831;DHT22;20137;48.834;8.732;2023-04-15T02:29:34;4.40;99.90
33831;DHT22;20137;48.834;8.732;2023-04-15T02:32:00;4.30;99.90
33831;DHT22;20137;48.834;8.732;2023-04-15T02:34:26;4.30;99.90
33831;DHT22;20137;48.834;8.732;2023-04-15T02:36:52;4.20;99.90
33831;DHT22;20137;48.834;8.732;2023-04-15T02:39:22;4.20;99.90
33831;DHT22;20137;48.834;8.732;2023-04-15T02:41:48;4.10;99.90
33831;DHT22;20137;48.834;8.732;2023-04-15T02:44:17;4.00;99.90
33831;DHT22;20137;48.834;8.732;2023-04-15T02:46:45;4.00;99.90
33831;DHT22;20137;48.834;8.732;2023-04-15T02:49:17;4.00;99.90
33831;DHT22;20137;48.834;8.732;2023-04-15T02:51:42;3.90;99.90
33831;DHT22;20137;48.834;8.732;2023-04-15T02:54:12;3.90;99.90
33831;DHT22;20137;48.834;8.732;2023-04-15T02:56:37;3.90;99.90
33831;DHT22;20137;48.834;8.732;2023-04-15T02:59:03;3.80;99.90
33831;DHT22;20137;48.834;8.732;2023-04-15T03:01:29;3.80;99.90
33831;DHT22;20137;48.834;8.732;2023-04-15T03:03:54;3.80;99.90
33831;DHT22;20137;48.834;8.732;2023-04-15T03:06:20;3.80;99.90
33831;DHT22;20137;48.834;8.732;2023-04-15T03:08:46;3.80;99.90
33831;DHT22;20137;48.834;8.732;2023-04-15T03:11:11;3.80;99.90
33831;DHT22;20137;48.834;8.732;2023-04-15T03:13:38;3.70;99.90
33831;DHT22;20137;48.834;8.732;2023-04-15T03:16:06;3.70;99.90
33831;DHT22;20137;48.834;8.732;2023-04-15T03:18:32;3.70;99.90
33831;DHT22;20137;48.834;8.732;2023-04-15T03:20:58;3.70;99.90
33831;DHT22;20137;48.834;8.732;2023-04-15T03:23:24;3.60;99.90
33831;DHT22;20137;48.834;8.732;2023-04-15T03:25:50;3.60;99.90
33831;DHT22;20137;48.834;8.732;2023-04-15T03:28:15;3.60;99.90
33831;DHT22;20137;48.834;8.732;2023-04-15T03:30:41;3.60;99.90
33831;DHT22;20137;48.834;8.732;2023-04-15T03:33:07;3.70;99.90
33831;DHT22;20137;48.834;8.732;2023-04-15T03:35:33;3.70;99.90
33831;DHT22;20137;48.834;8.732;2023-04-15T03:37:59;3.70;99.90
33831;DHT22;20137;48.834;8.732;2023-04-15T03:40:25;3.70;99.90
33831;DHT22;20137;48.834;8.732;2023-04-15T03:42:51;3.80;99.90
33831;DHT22;20137;48.834;8.732;2023-04-15T03:45:16;3.70;99.90
33831;DHT22;20137;48.834;8.732;2023-04-15T03:47:42;3.80;99.90
33831;DHT22;20137;48.834;8.732;2023-04-15T03:50:08;3.70;99.90
33831;DHT22;20137;48.834;8.732;2023-04-15T03:52:34;3.80;99.90
33831;DHT22;20137;48.834;8.732;2023-04-15T03:54:59;4.00;99.90
33831;DHT22;20137;48.834;8.732;2023-04-15T03:57:26;3.80;99.90
33831;DHT22;20137;48.834;8.732;2023-04-15T03:59:51;3.80;99.90
33831;DHT22;20137;48.834;8.732;2023-04-15T04:02:17;3.90;99.90
33831;DHT22;20137;48.834;8.732;2023-04-15T04:04:43;3.90;99.90
33831;DHT22;20137;48.834;8.732;2023-04-15T04:07:17;3.90;99.90
33831;DHT22;20137;48.834;8.732;2023-04-15T04:09:42;3.90;99.90
33831;DHT22;20137;48.834;8.732;2023-04-15T04:12:08;3.90;99.90
33831;DHT22;20137;48.834;8.732;2023-04-15T04:14:34;3.90;99.90
33831;DHT22;20137;48.834;8.732;2023-04-15T04:16:59;3.90;99.90
33831;DHT22;20137;48.834;8.732;2023-04-15T04:19:25;3.90;99.90
33831;DHT22;20137;48.834;8.732;2023-04-15T04:21:51;3.80;99.90
33831;DHT22;20137;48.834;8.732;2023-04-15T04:24:17;3.90;99.90
33831;DHT22;20137;48.834;8.732;2023-04-15T04:26:43;3.90;99.90
33831;DHT22;20137;48.834;8.732;2023-04-15T04:29:08;3.80;99.90
33831;DHT22;20137;48.834;8.732;2023-04-15T04:31:34;3.90;99.90
33831;DHT22;20137;48.834;8.732;2023-04-15T04:34:00;3.90;99.90
33831;DHT22;20137;48.834;8.732;2023-04-15T04:36:26;4.00;99.90
33831;DHT22;20137;48.834;8.732;2023-04-15T04:38:52;4.00;99.90
33831;DHT22;20137;48.834;8.732;2023-04-15T04:41:18;4.00;99.90
33831;DHT22;20137;48.834;8.732;2023-04-15T04:43:43;4.20;99.90
33831;DHT22;20137;48.834;8.732;2023-04-15T04:46:09;4.10;99.90
33831;DHT22;20137;48.834;8.732;2023-04-15T04:48:35;4.20;99.90
33831;DHT22;20137;48.834;8.732;2023-04-15T04:51:01;4.20;99.90
33831;DHT22;20137;48.834;8.732;2023-04-15T04:53:26;4.30;99.90
33831;DHT22;20137;48.834;8.732;2023-04-15T04:55:52;4.30;99.90
33831;DHT22;20137;48.834;8.732;2023-04-15T04:58:18;4.30;99.90
33831;DHT22;20137;48.834;8.732;2023-04-15T05:00:44;4.30;99.90
33831;DHT22;20137;48.834;8.732;2023-04-15T05:03:10;4.50;99.90
33831;DHT22;20137;48.834;8.732;2023-04-15T05:05:36;4.40;99.90
33831;DHT22;20137;48.834;8.732;2023-04-15T05:08:04;4.50;99.90
33831;DHT22;20137;48.834;8.732;2023-04-15T05:10:30;4.50;99.90
33831;DHT22;20137;48.834;8.732;2023-04-15T05:12:56;4.60;99.90
33831;DHT22;20137;48.834;8.732;2023-04-15T05:15:22;4.70;99.90
33831;DHT22;20137;48.834;8.732;2023-04-15T05:17:48;4.80;99.90
33831;DHT22;20137;48.834;8.732;2023-04-15T05:20:13;4.80;99.90
33831;DHT22;20137;48.834;8.732;2023-04-15T05:22:40;4.90;99.90
33831;DHT22;20137;48.834;8.732;2023-04-15T05:25:05;5.00;99.90
33831;DHT22;20137;48.834;8.732;2023-04-15T05:27:31;5.00;99.90
33831;DHT22;20137;48.834;8.732;2023-04-15T05:29:57;5.10;99.90
33831;DHT22;20137;48.834;8.732;2023-04-15T05:32:23;5.20;99.90
33831;DHT22;20137;48.834;8.732;2023-04-15T05:34:48;5.30;99.90
33831;DHT22;20137;48.834;8.732;2023-04-15T05:37:14;5.40;99.90
33831;DHT22;20137;48.834;8.732;2023-04-15T05:39:40;5.60;99.90
33831;DHT22;20137;48.834;8.732;2023-04-15T05:42:07;5.80;99.90
33831;DHT22;20137;48.834;8.732;2023-04-15T05:44:32;6.00;99.90
33831;DHT22;20137;48.834;8.732;2023-04-15T05:46:58;6.30;99.90
33831;DHT22;20137;48.834;8.732;2023-04-15T05:49:24;6.60;99.90
33831;DHT22;20137;48.834;8.732;2023-04-15T05:51:49;6.80;99.90
33831;DHT22;20137;48.834;8.732;2023-04-15T05:54:16;7.00;99.90
33831;DHT22;20137;48.834;8.732;2023-04-15T05:56:43;7.20;99.90
33831;DHT22;20137;48.834;8.732;2023-04-15T05:59:08;7.50;99.90
33831;DHT22;20137;48.834;8.732;2023-04-15T06:01:34;7.80;99.90
33831;DHT22;20137;48.834;8.732;2023-04-15T06:04:00;8.30;99.90
33831;DHT22;20137;48.834;8.732;2023-04-15T06:06:26;8.70;99.90
33831;DHT22;20137;48.834;8.732;2023-04-15T06:08:52;9.30;99.90
33831;DHT22;20137;48.834;8.732;2023-04-15T06:11:19;9.70;99.90
33831;DHT22;20137;48.834;8.732;2023-04-15T06:13:46;10.00;99.90
33831;DHT22;20137;48.834;8.732;2023-04-15T06:16:12;10.20;99.90
33831;DHT22;20137;48.834;8.732;2023-04-15T06:18:38;10.20;99.90
33831;DHT22;20137;48.834;8.732;2023-04-15T06:21:03;10.30;99.90
33831;DHT22;20137;48.834;8.732;2023-04-15T06:23:29;10.00;99.90
33831;DHT22;20137;48.834;8.732;2023-04-15T06:25:55;9.90;99.90
33831;DHT22;20137;48.834;8.732;2023-04-15T06:28:21;9.50;99.90
33831;DHT22;20137;48.834;8.732;2023-04-15T06:30:46;8.80;99.90
33831;DHT22;20137;48.834;8.732;2023-04-15T06:33:12;8.50;99.90
33831;DHT22;20137;48.834;8.732;2023-04-15T06:35:38;8.40;99.90
33831;DHT22;20137;48.834;8.732;2023-04-15T06:38:04;8.40;99.90
33831;DHT22;20137;48.834;8.732;2023-04-15T06:40:30;8.30;99.90
33831;DHT22;20137;48.834;8.732;2023-04-15T06:42:56;8.30;99.90
33831;DHT22;20137;48.834;8.732;2023-04-15T06:45:21;8.30;99.90
33831;DHT22;20137;48.834;8.732;2023-04-15T06:47:47;8.50;99.90
33831;DHT22;20137;48.834;8.732;2023-04-15T06:50:13;8.60;99.90
33831;DHT22;20137;48.834;8.732;2023-04-15T06:52:39;8.60;99.90
33831;DHT22;20137;48.834;8.732;2023-04-15T06:55:05;8.60;99.90
33831;DHT22;20137;48.834;8.732;2023-04-15T06:57:31;8.60;99.90
33831;DHT22;20137;48.834;8.732;2023-04-15T06:59:57;8.60;99.90
33831;DHT22;20137;48.834;8.732;2023-04-15T07:02:22;8.80;99.90
33831;DHT22;20137;48.834;8.732;2023-04-15T07:04:48;9.00;99.90
33831;DHT22;20137;48.834;8.732;2023-04-15T07:07:14;9.20;99.90
33831;DHT22;20137;48.834;8.732;2023-04-15T07:09:41;9.20;99.90
33831;DHT22;20137;48.834;8.732;2023-04-15T07:12:07;9.40;99.90
33831;DHT22;20137;48.834;8.732;2023-04-15T07:14:33;9.40;99.90
33831;DHT22;20137;48.834;8.732;2023-04-15T07:16:58;9.60;99.90
33831;DHT22;20137;48.834;8.732;2023-04-15T07:19:24;9.90;99.90
33831;DHT22;20137;48.834;8.732;2023-04-15T07:21:50;10.20;99.90
33831;DHT22;20137;48.834;8.732;2023-04-15T07:24:15;10.50;99.90
33831;DHT22;20137;48.834;8.732;2023-04-15T07:26:43;10.80;99.90
33831;DHT22;20137;48.834;8.732;2023-04-15T07:29:09;10.90;99.90
33831;DHT22;20137;48.834;8.732;2023-04-15T07:31:35;11.00;99.90
33831;DHT22;20137;48.834;8.732;2023-04-15T07:34:02;11.10;99.90
33831;DHT22;20137;48.834;8.732;2023-04-15T07:36:28;11.10;99.90
33831;DHT22;20137;48.834;8.732;2023-04-15T07:38:53;11.30;99.90
33831;DHT22;20137;48.834;8.732;2023-04-15T07:41:20;11.40;99.70
33831;DHT22;20137;48.834;8.732;2023-04-15T07:43:46;11.70;99.60
33831;DHT22;20137;48.834;8.732;2023-04-15T07:46:13;11.80;98.10
33831;DHT22;20137;48.834;8.732;2023-04-15T07:48:39;11.80;98.50
33831;DHT22;20137;48.834;8.732;2023-04-15T07:51:05;11.80;98.70
33831;DHT22;20137;48.834;8.732;2023-04-15T07:53:30;11.80;98.30
33831;DHT22;20137;48.834;8.732;2023-04-15T07:55:57;11.80;98.50
33831;DHT22;20137;48.834;8.732;2023-04-15T07:58:23;12.10;98.20
33831;DHT22;20137;48.834;8.732;2023-04-15T08:00:49;12.10;96.80
33831;DHT22;20137;48.834;8.732;2023-04-15T08:03:15;12.30;97.40
33831;DHT22;20137;48.834;8.732;2023-04-15T08:05:40;12.40;97.80
33831;DHT22;20137;48.834;8.732;2023-04-15T08:08:06;11.90;97.10
33831;DHT22;20137;48.834;8.732;2023-04-15T08:10:32;12.00;97.70
33831;DHT22;20137;48.834;8.732;2023-04-15T08:12:58;12.20;97.60
33831;DHT22;20137;48.834;8.732;2023-04-15T08:15:24;12.30;97.50
33831;DHT22;20137;48.834;8.732;2023-04-15T08:17:51;11.90;97.60
33831;DHT22;20137;48.834;8.732;2023-04-15T08:20:16;12.10;98.00
33831;DHT22;20137;48.834;8.732;2023-04-15T08:22:42;12.10;97.40
33831;DHT22;20137;48.834;8.732;2023-04-15T08:25:08;12.10;98.30
33831;DHT22;20137;48.834;8.732;2023-04-15T08:27:34;12.10;96.80
33831;DHT22;20137;48.834;8.732;2023-04-15T08:30:00;12.10;97.30
33831;DHT22;20137;48.834;8.732;2023-04-15T08:32:26;12.00;96.80
33831;DHT22;20137;48.834;8.732;2023-04-15T08:34:52;11.60;97.10
33831;DHT22;20137;48.834;8.732;2023-04-15T08:37:17;11.50;96.30
33831;DHT22;20137;48.834;8.732;2023-04-15T08:39:43;11.50;97.10
33831;DHT22;20137;48.834;8.732;2023-04-15T08:42:16;11.60;97.90
33831;DHT22;20137;48.834;8.732;2023-04-15T08:44:42;11.70;97.50
33831;DHT22;20137;48.834;8.732;2023-04-15T08:47:12;11.90;98.00
33831;DHT22;20137;48.834;8.732;2023-04-15T08:49:39;12.00;97.10
33831;DHT22;20137;48.834;8.732;2023-04-15T08:52:06;12.00;95.50
33831;DHT22;20137;48.834;8.732;2023-04-15T08:54:33;11.90;96.20
33831;DHT22;20137;48.834;8.732;2023-04-15T08:56:59;12.00;96.40
33831;DHT22;20137;48.834;8.732;2023-04-15T08:59:27;12.20;96.70
33831;DHT22;20137;48.834;8.732;2023-04-15T09:01:56;12.10;96.40
33831;DHT22;20137;48.834;8.732;2023-04-15T09:04:21;12.10;96.60
33831;DHT22;20137;48.834;8.732;2023-04-15T09:06:47;12.10;96.40
33831;DHT22;20137;48.834;8.732;2023-04-15T09:09:13;11.90;96.00
33831;DHT22;20137;48.834;8.732;2023-04-15T09:11:39;12.10;96.10
33831;DHT22;20137;48.834;8.732;2023-04-15T09:14:04;12.30;96.30
33831;DHT22;20137;48.834;8.732;2023-04-15T09:16:30;12.60;95.70
33831;DHT22;20137;48.834;8.732;2023-04-15T09:18:56;12.90;95.60
33831;DHT22;20137;48.834;8.732;2023-04-15T09:21:22;12.90;95.80
33831;DHT22;20137;48.834;8.732;2023-04-15T09:23:56;12.60;96.00
33831;DHT22;20137;48.834;8.732;2023-04-15T09:26:32;12.80;95.90
33831;DHT22;20137;48.834;8.732;2023-04-15T09:29:06;12.70;96.60
33831;DHT22;20137;48.834;8.732;2023-04-15T09:31:32;12.80;96.60
33831;DHT22;20137;48.834;8.732;2023-04-15T09:33:58;13.00;97.00
33831;DHT22;20137;48.834;8.732;2023-04-15T09:36:24;13.00;96.60
33831;DHT22;20137;48.834;8.732;2023-04-15T09:38:57;12.90;97.10
33831;DHT22;20137;48.834;8.732;2023-04-15T09:41:24;13.00;96.30
33831;DHT22;20137;48.834;8.732;2023-04-15T09:43:50;13.30;97.20
33831;DHT22;20137;48.834;8.732;2023-04-15T09:46:15;13.30;95.30
33831;DHT22;20137;48.834;8.732;2023-04-15T09:48:41;13.40;96.40
33831;DHT22;20137;48.834;8.732;2023-04-15T09:51:07;13.30;96.90
33831;DHT22;20137;48.834;8.732;2023-04-15T09:53:35;13.20;97.10
33831;DHT22;20137;48.834;8.732;2023-04-15T09:56:01;13.20;96.00
33831;DHT22;20137;48.834;8.732;2023-04-15T09:58:32;13.10;97.00
33831;DHT22;20137;48.834;8.732;2023-04-15T10:00:59;13.20;96.60
33831;DHT22;20137;48.834;8.732;2023-04-15T10:03:32;13.10;94.80
33831;DHT22;20137;48.834;8.732;2023-04-15T10:06:00;13.30;95.00
33831;DHT22;20137;48.834;8.732;2023-04-15T10:08:28;13.50;95.30
33831;DHT22;20137;48.834;8.732;2023-04-15T10:10:55;13.30;96.20
33831;DHT22;20137;48.834;8.732;2023-04-15T10:13:24;13.30;96.50
33831;DHT22;20137;48.834;8.732;2023-04-15T10:18:23;13.10;96.30
33831;DHT22;20137;48.834;8.732;2023-04-15T10:20:49;13.30;96.60
33831;DHT22;20137;48.834;8.732;2023-04-15T10:23:15;13.20;93.80
33831;DHT22;20137;48.834;8.732;2023-04-15T10:25:44;13.30;94.60
33831;DHT22;20137;48.834;8.732;2023-04-15T10:28:11;13.30;96.60
33831;DHT22;20137;48.834;8.732;2023-04-15T10:30:37;13.00;96.10
33831;DHT22;20137;48.834;8.732;2023-04-15T10:33:04;13.10;97.20
33831;DHT22;20137;48.834;8.732;2023-04-15T10:35:31;13.10;97.00
33831;DHT22;20137;48.834;8.732;2023-04-15T10:37:59;12.80;95.90
33831;DHT22;20137;48.834;8.732;2023-04-15T10:40:31;12.90;96.20
33831;DHT22;20137;48.834;8.732;2023-04-15T10:42:59;13.00;95.70
33831;DHT22;20137;48.834;8.732;2023-04-15T10:45:34;13.00;97.00
33831;DHT22;20137;48.834;8.732;2023-04-15T10:48:02;13.20;96.20
33831;DHT22;20137;48.834;8.732;2023-04-15T10:50:30;13.20;96.70
33831;DHT22;20137;48.834;8.732;2023-04-15T10:52:57;13.30;96.70
33831;DHT22;20137;48.834;8.732;2023-04-15T10:55:25;13.30;94.70
33831;DHT22;20137;48.834;8.732;2023-04-15T10:57:58;13.20;95.20
33831;DHT22;20137;48.834;8.732;2023-04-15T11:00:27;13.10;96.10
33831;DHT22;20137;48.834;8.732;2023-04-15T11:03:07;12.70;96.20
33831;DHT22;20137;48.834;8.732;2023-04-15T11:05:49;12.60;96.30
33831;DHT22;20137;48.834;8.732;2023-04-15T11:08:16;12.60;96.80
33831;DHT22;20137;48.834;8.732;2023-04-15T11:15:39;12.50;96.40
33831;DHT22;20137;48.834;8.732;2023-04-15T11:20:35;12.40;96.90
33831;DHT22;20137;48.834;8.732;2023-04-15T11:23:00;12.30;97.20
33831;DHT22;20137;48.834;8.732;2023-04-15T11:25:30;12.40;97.20
33831;DHT22;20137;48.834;8.732;2023-04-15T11:27:57;12.50;97.20
33831;DHT22;20137;48.834;8.732;2023-04-15T11:30:25;12.80;97.30
33831;DHT22;20137;48.834;8.732;2023-04-15T11:32:52;13.00;96.70
33831;DHT22;20137;48.834;8.732;2023-04-15T11:35:18;12.80;97.20
33831;DHT22;20137;48.834;8.732;2023-04-15T11:37:45;12.50;96.90
33831;DHT22;20137;48.834;8.732;2023-04-15T11:40:12;12.40;97.70
33831;DHT22;20137;48.834;8.732;2023-04-15T11:42:39;12.50;97.30
33831;DHT22;20137;48.834;8.732;2023-04-15T11:45:10;12.70;97.80
33831;DHT22;20137;48.834;8.732;2023-04-15T11:47:36;13.10;97.80
33831;DHT22;20137;48.834;8.732;2023-04-15T11:50:22;12.70;97.00
33831;DHT22;20137;48.834;8.732;2023-04-15T11:53:02;12.60;97.10
33831;DHT22;20137;48.834;8.732;2023-04-15T11:55:29;12.60;96.70
33831;DHT22;20137;48.834;8.732;2023-04-15T11:58:15;12.50;96.80
33831;DHT22;20137;48.834;8.732;2023-04-15T12:00:48;12.20;97.40
33831;DHT22;20137;48.834;8.732;2023-04-15T12:03:35;12.40;97.30
33831;DHT22;20137;48.834;8.732;2023-04-15T12:06:11;12.50;94.50
33831;DHT22;20137;48.834;8.732;2023-04-15T12:11:15;12.60;95.80
33831;DHT22;20137;48.834;8.732;2023-04-15T12:13:53;12.70;94.70
33831;DHT22;20137;48.834;8.732;2023-04-15T12:16:20;12.80;95.70
33831;DHT22;20137;48.834;8.732;2023-04-15T12:18:46;12.70;95.60
33831;DHT22;20137;48.834;8.732;2023-04-15T12:21:13;12.60;95.30
33831;DHT22;20137;48.834;8.732;2023-04-15T12:23:47;12.60;96.40
33831;DHT22;20137;48.834;8.732;2023-04-15T12:26:14;12.70;95.80
33831;DHT22;20137;48.834;8.732;2023-04-15T12:28:40;12.90;95.80
33831;DHT22;20137;48.834;8.732;2023-04-15T12:31:10;13.20;95.40
33831;DHT22;20137;48.834;8.732;2023-04-15T12:33:36;13.10;95.10
33831;DHT22;20137;48.834;8.732;2023-04-15T12:36:02;13.20;94.50
33831;DHT22;20137;48.834;8.732;2023-04-15T12:38:29;12.90;95.00
33831;DHT22;20137;48.834;8.732;2023-04-15T12:40:55;12.90;96.10
33831;DHT22;20137;48.834;8.732;2023-04-15T12:43:21;13.20;95.20
33831;DHT22;20137;48.834;8.732;2023-04-15T12:45:46;13.20;94.90
33831;DHT22;20137;48.834;8.732;2023-04-15T12:48:12;13.30;96.00
33831;DHT22;20137;48.834;8.732;2023-04-15T12:50:38;13.00;94.10
33831;DHT22;20137;48.834;8.732;2023-04-15T12:53:04;12.80;94.00
33831;DHT22;20137;48.834;8.732;2023-04-15T12:55:30;12.90;94.90
33831;DHT22;20137;48.834;8.732;2023-04-15T12:57:56;13.10;95.30
33831;DHT22;20137;48.834;8.732;2023-04-15T13:00:22;13.20;94.80
33831;DHT22;20137;48.834;8.732;2023-04-15T13:02:48;13.00;93.20
33831;DHT22;20137;48.834;8.732;2023-04-15T13:05:14;12.80;93.00
33831;DHT22;20137;48.834;8.732;2023-04-15T13:07:40;12.50;94.30
33831;DHT22;20137;48.834;8.732;2023-04-15T13:10:06;12.40;93.70
33831;DHT22;20137;48.834;8.732;2023-04-15T13:12:32;12.40;92.90
33831;DHT22;20137;48.834;8.732;2023-04-15T13:15:04;12.30;92.30
33831;DHT22;20137;48.834;8.732;2023-04-15T13:17:29;12.30;92.70
33831;DHT22;20137;48.834;8.732;2023-04-15T13:19:55;12.40;92.60
33831;DHT22;20137;48.834;8.732;2023-04-15T13:22:21;12.50;92.50
33831;DHT22;20137;48.834;8.732;2023-04-15T13:24:47;12.60;93.20
33831;DHT22;20137;48.834;8.732;2023-04-15T13:27:13;12.70;91.70
33831;DHT22;20137;48.834;8.732;2023-04-15T13:29:40;12.60;94.80
33831;DHT22;20137;48.834;8.732;2023-04-15T13:32:06;12.60;95.60
33831;DHT22;20137;48.834;8.732;2023-04-15T13:34:31;12.50;95.50
33831;DHT22;20137;48.834;8.732;2023-04-15T13:36:57;12.30;95.50
33831;DHT22;20137;48.834;8.732;2023-04-15T13:39:23;12.30;95.70
33831;DHT22;20137;48.834;8.732;2023-04-15T13:41:48;12.50;94.80
33831;DHT22;20137;48.834;8.732;2023-04-15T13:44:14;12.30;94.40
33831;DHT22;20137;48.834;8.732;2023-04-15T13:46:40;12.00;94.60
33831;DHT22;20137;48.834;8.732;2023-04-15T13:49:07;11.90;95.20
33831;DHT22;20137;48.834;8.732;2023-04-15T13:51:32;11.70;94.40
33831;DHT22;20137;48.834;8.732;2023-04-15T13:54:00;11.90;93.50
33831;DHT22;20137;48.834;8.732;2023-04-15T13:56:26;11.90;94.60
33831;DHT22;20137;48.834;8.732;2023-04-15T13:58:51;11.90;94.20
33831;DHT22;20137;48.834;8.732;2023-04-15T14:01:19;11.90;94.60
33831;DHT22;20137;48.834;8.732;2023-04-15T14:03:44;12.00;93.70
33831;DHT22;20137;48.834;8.732;2023-04-15T14:06:10;12.00;93.40
33831;DHT22;20137;48.834;8.732;2023-04-15T14:08:36;12.00;93.60
33831;DHT22;20137;48.834;8.732;2023-04-15T14:11:01;11.90;93.50
33831;DHT22;20137;48.834;8.732;2023-04-15T14:13:27;11.80;93.70
33831;DHT22;20137;48.834;8.732;2023-04-15T14:15:53;11.80;93.40
33831;DHT22;20137;48.834;8.732;2023-04-15T14:18:19;11.70;93.50
33831;DHT22;20137;48.834;8.732;2023-04-15T14:20:45;11.40;94.00
33831;DHT22;20137;48.834;8.732;2023-04-15T14:23:10;11.40;94.20
33831;DHT22;20137;48.834;8.732;2023-04-15T14:25:36;11.40;94.80
33831;DHT22;20137;48.834;8.732;2023-04-15T14:28:03;11.20;95.30
33831;DHT22;20137;48.834;8.732;2023-04-15T14:30:29;11.10;95.60
33831;DHT22;20137;48.834;8.732;2023-04-15T14:32:55;11.20;95.60
33831;DHT22;20137;48.834;8.732;2023-04-15T14:35:21;11.20;95.80
33831;DHT22;20137;48.834;8.732;2023-04-15T14:37:46;11.20;96.10
33831;DHT22;20137;48.834;8.732;2023-04-15T14:40:12;11.30;96.30
33831;DHT22;20137;48.834;8.732;2023-04-15T14:42:38;11.20;96.10
33831;DHT22;20137;48.834;8.732;2023-04-15T14:45:03;11.20;96.50
33831;DHT22;20137;48.834;8.732;2023-04-15T14:47:30;11.40;96.40
33831;DHT22;20137;48.834;8.732;2023-04-15T14:49:55;11.40;96.40
33831;DHT22;20137;48.834;8.732;2023-04-15T14:52:22;11.50;96.70
33831;DHT22;20137;48.834;8.732;2023-04-15T14:54:47;11.40;96.30
33831;DHT22;20137;48.834;8.732;2023-04-15T14:57:13;11.20;96.20
33831;DHT22;20137;48.834;8.732;2023-04-15T14:59:38;11.20;96.50
33831;DHT22;20137;48.834;8.732;2023-04-15T15:02:04;11.00;95.80
33831;DHT22;20137;48.834;8.732;2023-04-15T15:04:30;11.10;96.10
33831;DHT22;20137;48.834;8.732;2023-04-15T15:06:57;11.10;96.00
33831;DHT22;20137;48.834;8.732;2023-04-15T15:09:24;11.20;96.30
33831;DHT22;20137;48.834;8.732;2023-04-15T15:11:49;11.20;95.60
33831;DHT22;20137;48.834;8.732;2023-04-15T15:14:15;11.20;95.90
33831;DHT22;20137;48.834;8.732;2023-04-15T15:16:41;11.30;95.90
33831;DHT22;20137;48.834;8.732;2023-04-15T15:19:07;11.40;95.60
33831;DHT22;20137;48.834;8.732;2023-04-15T15:21:33;11.50;95.80
33831;DHT22;20137;48.834;8.732;2023-04-15T15:23:59;11.60;95.60
33831;DHT22;20137;48.834;8.732;2023-04-15T15:26:24;11.60;95.00
33831;DHT22;20137;48.834;8.732;2023-04-15T15:28:52;11.50;95.20
33831;DHT22;20137;48.834;8.732;2023-04-15T15:31:18;11.50;95.00
33831;DHT22;20137;48.834;8.732;2023-04-15T15:33:43;11.40;95.00
33831;DHT22;20137;48.834;8.732;2023-04-15T15:36:09;11.40;95.30
33831;DHT22;20137;48.834;8.732;2023-04-15T15:38:35;11.20;94.80
33831;DHT22;20137;48.834;8.732;2023-04-15T15:41:01;11.10;95.60
33831;DHT22;20137;48.834;8.732;2023-04-15T15:43:27;11.10;96.10
33831;DHT22;20137;48.834;8.732;2023-04-15T15:45:53;11.20;96.10